Terminal Aerodrome Forecast
Issued by NWS

Home | Current Version | Previous Version | Graphics & Text | Print | Product List | Glossary On
Versions: 1 2 3 4 5 6 7 8 9 10 11 12 13 14 15 16 17 18 19 20 21
000
FTUS43 KABR 252000 AAB
TAFPIR
TAF AMD
KPIR 252038Z 2521/2618 01014G20KT P6SM SCT018 BKN040 OVC060
      TEMPO 2521/2523 -SN BKN018
     FM260000 35015G23KT P6SM OVC035
     FM260700 34010KT P6SM SCT050 SCT120=

USA.gov is the U.S. government's official web portal to all federal, state and local government web resources and services.